sensor_id;sensor_type;location;lat;lon;timestamp;P1;durP1;ratioP1;P2;durP2;ratioP2
813;SDS011;389;48.710;9.392;2023-03-01T00:00:34;23.37;;;10.67;;
813;SDS011;389;48.710;9.392;2023-03-01T00:03:03;21.57;;;11.10;;
813;SDS011;389;48.710;9.392;2023-03-01T00:05:42;24.13;;;9.57;;
813;SDS011;389;48.710;9.392;2023-03-01T00:08:19;24.60;;;10.20;;
813;SDS011;389;48.710;9.392;2023-03-01T00:10:47;22.53;;;11.30;;
813;SDS011;389;48.710;9.392;2023-03-01T00:13:13;23.60;;;11.23;;
813;SDS011;389;48.710;9.392;2023-03-01T00:15:50;25.07;;;11.47;;
813;SDS011;389;48.710;9.392;2023-03-01T00:18:40;22.03;;;11.50;;
813;SDS011;389;48.710;9.392;2023-03-01T00:21:27;24.73;;;11.53;;
813;SDS011;389;48.710;9.392;2023-03-01T00:24:35;18.40;;;10.17;;
813;SDS011;389;48.710;9.392;2023-03-01T00:35:14;22.47;;;10.40;;
813;SDS011;389;48.710;9.392;2023-03-01T00:37:48;20.00;;;10.07;;
813;SDS011;389;48.710;9.392;2023-03-01T00:41:13;16.97;;;9.23;;
813;SDS011;389;48.710;9.392;2023-03-01T00:50:03;24.53;;;11.50;;
813;SDS011;389;48.710;9.392;2023-03-01T00:52:55;22.07;;;10.33;;
813;SDS011;389;48.710;9.392;2023-03-01T00:56:04;26.57;;;10.97;;
813;SDS011;389;48.710;9.392;2023-03-01T01:01:23;24.20;;;11.00;;
813;SDS011;389;48.710;9.392;2023-03-01T01:03:56;25.70;;;10.63;;
813;SDS011;389;48.710;9.392;2023-03-01T01:06:24;20.97;;;11.67;;
813;SDS011;389;48.710;9.392;2023-03-01T01:08:53;21.57;;;10.93;;
813;SDS011;389;48.710;9.392;2023-03-01T01:11:19;23.83;;;12.30;;
813;SDS011;389;48.710;9.392;2023-03-01T01:13:46;26.93;;;11.87;;
813;SDS011;389;48.710;9.392;2023-03-01T01:16:13;24.23;;;10.87;;
813;SDS011;389;48.710;9.392;2023-03-01T01:18:39;25.30;;;12.80;;
813;SDS011;389;48.710;9.392;2023-03-01T01:21:09;23.53;;;10.97;;
813;SDS011;389;48.710;9.392;2023-03-01T01:23:37;20.67;;;10.70;;
813;SDS011;389;48.710;9.392;2023-03-01T01:26:08;23.50;;;10.20;;
813;SDS011;389;48.710;9.392;2023-03-01T01:29:00;21.80;;;10.50;;
813;SDS011;389;48.710;9.392;2023-03-01T01:31:28;24.23;;;11.23;;
813;SDS011;389;48.710;9.392;2023-03-01T01:33:54;21.93;;;10.83;;
813;SDS011;389;48.710;9.392;2023-03-01T01:36:20;21.40;;;11.17;;
813;SDS011;389;48.710;9.392;2023-03-01T01:38:46;21.10;;;11.43;;
813;SDS011;389;48.710;9.392;2023-03-01T01:41:12;22.53;;;10.73;;
813;SDS011;389;48.710;9.392;2023-03-01T01:43:42;23.40;;;11.40;;
813;SDS011;389;48.710;9.392;2023-03-01T01:46:14;26.77;;;11.80;;
813;SDS011;389;48.710;9.392;2023-03-01T01:48:59;24.20;;;11.57;;
813;SDS011;389;48.710;9.392;2023-03-01T01:51:30;23.40;;;10.97;;
813;SDS011;389;48.710;9.392;2023-03-01T01:54:04;22.93;;;11.63;;
813;SDS011;389;48.710;9.392;2023-03-01T01:56:34;25.47;;;11.90;;
813;SDS011;389;48.710;9.392;2023-03-01T01:59:02;28.77;;;12.53;;
813;SDS011;389;48.710;9.392;2023-03-01T02:01:28;28.53;;;12.60;;
813;SDS011;389;48.710;9.392;2023-03-01T02:03:54;27.37;;;11.73;;
813;SDS011;389;48.710;9.392;2023-03-01T02:06:28;24.90;;;11.97;;
813;SDS011;389;48.710;9.392;2023-03-01T02:08:59;25.53;;;12.13;;
813;SDS011;389;48.710;9.392;2023-03-01T02:11:29;23.63;;;11.53;;
813;SDS011;389;48.710;9.392;2023-03-01T02:13:56;21.53;;;12.10;;
813;SDS011;389;48.710;9.392;2023-03-01T02:16:22;30.83;;;13.53;;
813;SDS011;389;48.710;9.392;2023-03-01T02:18:47;27.93;;;12.57;;
813;SDS011;389;48.710;9.392;2023-03-01T02:26:56;22.83;;;11.67;;
813;SDS011;389;48.710;9.392;2023-03-01T02:29:23;24.70;;;11.87;;
813;SDS011;389;48.710;9.392;2023-03-01T02:31:50;24.83;;;11.87;;
813;SDS011;389;48.710;9.392;2023-03-01T02:34:20;31.50;;;13.57;;
813;SDS011;389;48.710;9.392;2023-03-01T02:36:53;19.17;;;11.10;;
813;SDS011;389;48.710;9.392;2023-03-01T02:39:25;24.23;;;12.77;;
813;SDS011;389;48.710;9.392;2023-03-01T02:41:54;29.97;;;13.30;;
813;SDS011;389;48.710;9.392;2023-03-01T02:44:22;21.93;;;11.33;;
813;SDS011;389;48.710;9.392;2023-03-01T02:46:49;22.90;;;12.00;;
813;SDS011;389;48.710;9.392;2023-03-01T02:49:22;24.00;;;12.00;;
813;SDS011;389;48.710;9.392;2023-03-01T02:54:51;23.97;;;12.23;;
813;SDS011;389;48.710;9.392;2023-03-01T02:57:28;24.00;;;11.57;;
813;SDS011;389;48.710;9.392;2023-03-01T02:59:56;24.57;;;12.17;;
813;SDS011;389;48.710;9.392;2023-03-01T03:02:26;20.23;;;11.80;;
813;SDS011;389;48.710;9.392;2023-03-01T03:05:14;25.03;;;11.40;;
813;SDS011;389;48.710;9.392;2023-03-01T03:07:45;22.87;;;12.07;;
813;SDS011;389;48.710;9.392;2023-03-01T03:10:20;22.20;;;11.40;;
813;SDS011;389;48.710;9.392;2023-03-01T03:12:50;26.97;;;12.47;;
813;SDS011;389;48.710;9.392;2023-03-01T03:15:21;23.80;;;12.73;;
813;SDS011;389;48.710;9.392;2023-03-01T03:17:48;23.40;;;12.43;;
813;SDS011;389;48.710;9.392;2023-03-01T03:20:16;22.93;;;10.60;;
813;SDS011;389;48.710;9.392;2023-03-01T03:22:46;22.33;;;11.07;;
813;SDS011;389;48.710;9.392;2023-03-01T03:25:13;23.63;;;12.47;;
813;SDS011;389;48.710;9.392;2023-03-01T03:27:40;21.77;;;11.23;;
813;SDS011;389;48.710;9.392;2023-03-01T03:30:09;26.63;;;12.63;;
813;SDS011;389;48.710;9.392;2023-03-01T03:32:40;29.47;;;13.23;;
813;SDS011;389;48.710;9.392;2023-03-01T03:35:08;23.10;;;11.30;;
813;SDS011;389;48.710;9.392;2023-03-01T03:37:38;22.10;;;11.43;;
813;SDS011;389;48.710;9.392;2023-03-01T03:40:23;23.37;;;12.20;;
813;SDS011;389;48.710;9.392;2023-03-01T03:42:49;26.73;;;12.33;;
813;SDS011;389;48.710;9.392;2023-03-01T03:45:15;21.70;;;11.53;;
813;SDS011;389;48.710;9.392;2023-03-01T03:47:41;25.60;;;12.07;;
813;SDS011;389;48.710;9.392;2023-03-01T03:50:08;25.67;;;12.80;;
813;SDS011;389;48.710;9.392;2023-03-01T03:52:39;23.97;;;12.00;;
813;SDS011;389;48.710;9.392;2023-03-01T03:55:05;25.50;;;11.60;;
813;SDS011;389;48.710;9.392;2023-03-01T03:57:39;23.80;;;13.23;;
813;SDS011;389;48.710;9.392;2023-03-01T04:00:06;25.23;;;12.40;;
813;SDS011;389;48.710;9.392;2023-03-01T04:02:40;24.23;;;12.40;;
813;SDS011;389;48.710;9.392;2023-03-01T04:05:07;28.07;;;13.10;;
813;SDS011;389;48.710;9.392;2023-03-01T04:07:35;26.53;;;12.60;;
813;SDS011;389;48.710;9.392;2023-03-01T04:10:02;23.33;;;12.97;;
813;SDS011;389;48.710;9.392;2023-03-01T04:12:29;25.77;;;12.63;;
813;SDS011;389;48.710;9.392;2023-03-01T04:14:54;25.00;;;13.40;;
813;SDS011;389;48.710;9.392;2023-03-01T04:17:20;26.40;;;13.03;;
813;SDS011;389;48.710;9.392;2023-03-01T04:19:45;22.77;;;13.20;;
813;SDS011;389;48.710;9.392;2023-03-01T04:22:13;25.20;;;12.67;;
813;SDS011;389;48.710;9.392;2023-03-01T04:24:42;27.50;;;12.80;;
813;SDS011;389;48.710;9.392;2023-03-01T04:27:08;26.20;;;12.87;;
813;SDS011;389;48.710;9.392;2023-03-01T04:29:34;21.93;;;11.83;;
813;SDS011;389;48.710;9.392;2023-03-01T04:31:59;24.73;;;12.70;;
813;SDS011;389;48.710;9.392;2023-03-01T04:34:25;24.70;;;13.70;;
813;SDS011;389;48.710;9.392;2023-03-01T04:36:51;26.20;;;13.50;;
813;SDS011;389;48.710;9.392;2023-03-01T04:39:17;23.90;;;12.77;;
813;SDS011;389;48.710;9.392;2023-03-01T04:41:43;26.17;;;12.53;;
813;SDS011;389;48.710;9.392;2023-03-01T04:44:09;24.13;;;13.20;;
813;SDS011;389;48.710;9.392;2023-03-01T04:46:35;28.37;;;12.80;;
813;SDS011;389;48.710;9.392;2023-03-01T04:49:01;30.53;;;13.73;;
813;SDS011;389;48.710;9.392;2023-03-01T04:51:28;26.47;;;14.00;;
813;SDS011;389;48.710;9.392;2023-03-01T04:53:53;26.30;;;13.17;;
813;SDS011;389;48.710;9.392;2023-03-01T04:56:19;24.70;;;12.53;;
813;SDS011;389;48.710;9.392;2023-03-01T04:58:47;26.67;;;13.47;;
813;SDS011;389;48.710;9.392;2023-03-01T05:01:17;29.00;;;14.77;;
813;SDS011;389;48.710;9.392;2023-03-01T05:03:45;24.97;;;12.80;;
813;SDS011;389;48.710;9.392;2023-03-01T05:06:12;24.97;;;14.00;;
813;SDS011;389;48.710;9.392;2023-03-01T05:08:38;26.50;;;13.37;;
813;SDS011;389;48.710;9.392;2023-03-01T05:11:05;32.40;;;14.17;;
813;SDS011;389;48.710;9.392;2023-03-01T05:13:34;22.03;;;11.40;;
813;SDS011;389;48.710;9.392;2023-03-01T05:16:01;25.47;;;13.27;;
813;SDS011;389;48.710;9.392;2023-03-01T05:18:28;25.83;;;13.07;;
813;SDS011;389;48.710;9.392;2023-03-01T05:21:07;27.00;;;13.87;;
813;SDS011;389;48.710;9.392;2023-03-01T05:23:35;27.83;;;14.23;;
813;SDS011;389;48.710;9.392;2023-03-01T05:26:01;24.53;;;13.20;;
813;SDS011;389;48.710;9.392;2023-03-01T05:28:29;24.57;;;12.50;;
813;SDS011;389;48.710;9.392;2023-03-01T05:30:56;24.50;;;13.27;;
813;SDS011;389;48.710;9.392;2023-03-01T05:33:22;26.27;;;13.33;;
813;SDS011;389;48.710;9.392;2023-03-01T05:35:49;25.47;;;13.47;;
813;SDS011;389;48.710;9.392;2023-03-01T05:38:16;24.33;;;12.93;;
813;SDS011;389;48.710;9.392;2023-03-01T05:40:43;29.20;;;13.17;;
813;SDS011;389;48.710;9.392;2023-03-01T05:43:10;29.87;;;14.53;;
813;SDS011;389;48.710;9.392;2023-03-01T05:45:37;22.80;;;13.63;;
813;SDS011;389;48.710;9.392;2023-03-01T05:48:04;26.90;;;14.03;;
813;SDS011;389;48.710;9.392;2023-03-01T05:50:32;25.27;;;13.93;;
813;SDS011;389;48.710;9.392;2023-03-01T05:53:00;33.87;;;15.63;;
813;SDS011;389;48.710;9.392;2023-03-01T05:55:28;26.30;;;14.20;;
813;SDS011;389;48.710;9.392;2023-03-01T05:57:54;25.70;;;13.07;;
813;SDS011;389;48.710;9.392;2023-03-01T06:00:22;27.40;;;13.27;;
813;SDS011;389;48.710;9.392;2023-03-01T06:02:48;26.60;;;13.63;;
813;SDS011;389;48.710;9.392;2023-03-01T06:05:13;30.00;;;15.27;;
813;SDS011;389;48.710;9.392;2023-03-01T06:07:40;27.73;;;15.10;;
813;SDS011;389;48.710;9.392;2023-03-01T06:10:06;28.50;;;15.03;;
813;SDS011;389;48.710;9.392;2023-03-01T06:12:33;25.83;;;14.87;;
813;SDS011;389;48.710;9.392;2023-03-01T06:15:00;26.47;;;13.20;;
813;SDS011;389;48.710;9.392;2023-03-01T06:17:28;30.03;;;14.43;;
813;SDS011;389;48.710;9.392;2023-03-01T06:19:55;28.53;;;14.90;;
813;SDS011;389;48.710;9.392;2023-03-01T06:22:20;30.57;;;14.83;;
813;SDS011;389;48.710;9.392;2023-03-01T06:24:46;24.43;;;13.10;;
813;SDS011;389;48.710;9.392;2023-03-01T06:27:11;25.77;;;14.67;;
813;SDS011;389;48.710;9.392;2023-03-01T06:29:37;25.57;;;15.23;;
813;SDS011;389;48.710;9.392;2023-03-01T06:32:02;27.87;;;13.90;;
813;SDS011;389;48.710;9.392;2023-03-01T06:34:28;26.00;;;13.87;;
813;SDS011;389;48.710;9.392;2023-03-01T06:36:54;26.90;;;14.30;;
813;SDS011;389;48.710;9.392;2023-03-01T06:39:20;28.53;;;14.70;;
813;SDS011;389;48.710;9.392;2023-03-01T06:41:45;27.90;;;14.10;;
813;SDS011;389;48.710;9.392;2023-03-01T06:44:11;26.60;;;14.50;;
813;SDS011;389;48.710;9.392;2023-03-01T06:46:38;41.20;;;18.20;;
813;SDS011;389;48.710;9.392;2023-03-01T06:49:04;46.33;;;21.20;;
813;SDS011;389;48.710;9.392;2023-03-01T06:51:34;23.30;;;13.53;;
813;SDS011;389;48.710;9.392;2023-03-01T06:54:00;29.90;;;14.53;;
813;SDS011;389;48.710;9.392;2023-03-01T06:56:26;35.43;;;16.40;;
813;SDS011;389;48.710;9.392;2023-03-01T06:58:51;34.20;;;16.50;;
813;SDS011;389;48.710;9.392;2023-03-01T07:01:17;32.13;;;15.70;;
813;SDS011;389;48.710;9.392;2023-03-01T07:03:43;34.83;;;18.10;;
813;SDS011;389;48.710;9.392;2023-03-01T07:06:09;32.80;;;16.13;;
813;SDS011;389;48.710;9.392;2023-03-01T07:08:35;30.50;;;16.50;;
813;SDS011;389;48.710;9.392;2023-03-01T07:11:00;33.33;;;15.53;;
813;SDS011;389;48.710;9.392;2023-03-01T07:13:28;34.60;;;15.43;;
813;SDS011;389;48.710;9.392;2023-03-01T07:15:53;28.07;;;14.77;;
813;SDS011;389;48.710;9.392;2023-03-01T07:18:19;26.93;;;13.77;;
813;SDS011;389;48.710;9.392;2023-03-01T07:20:44;29.03;;;14.63;;
813;SDS011;389;48.710;9.392;2023-03-01T07:23:10;31.73;;;14.73;;
813;SDS011;389;48.710;9.392;2023-03-01T07:25:36;28.37;;;15.67;;
813;SDS011;389;48.710;9.392;2023-03-01T07:28:01;35.50;;;14.23;;
813;SDS011;389;48.710;9.392;2023-03-01T07:30:27;27.87;;;13.47;;
813;SDS011;389;48.710;9.392;2023-03-01T07:32:53;24.60;;;14.20;;
813;SDS011;389;48.710;9.392;2023-03-01T07:35:20;31.20;;;15.07;;
813;SDS011;389;48.710;9.392;2023-03-01T07:37:46;27.90;;;13.40;;
813;SDS011;389;48.710;9.392;2023-03-01T07:40:12;26.70;;;14.73;;
813;SDS011;389;48.710;9.392;2023-03-01T07:42:38;24.73;;;13.23;;
813;SDS011;389;48.710;9.392;2023-03-01T07:45:05;26.77;;;13.93;;
813;SDS011;389;48.710;9.392;2023-03-01T07:47:31;29.10;;;14.90;;
813;SDS011;389;48.710;9.392;2023-03-01T07:49:57;32.60;;;14.80;;
813;SDS011;389;48.710;9.392;2023-03-01T07:52:23;28.40;;;15.20;;
813;SDS011;389;48.710;9.392;2023-03-01T07:54:49;25.27;;;13.97;;
813;SDS011;389;48.710;9.392;2023-03-01T07:57:14;28.77;;;15.07;;
813;SDS011;389;48.710;9.392;2023-03-01T07:59:40;26.70;;;14.00;;
813;SDS011;389;48.710;9.392;2023-03-01T08:02:05;32.43;;;13.97;;
813;SDS011;389;48.710;9.392;2023-03-01T08:04:31;24.77;;;13.57;;
813;SDS011;389;48.710;9.392;2023-03-01T08:06:58;26.07;;;14.00;;
813;SDS011;389;48.710;9.392;2023-03-01T08:09:23;29.17;;;13.50;;
813;SDS011;389;48.710;9.392;2023-03-01T08:11:49;29.63;;;13.30;;
813;SDS011;389;48.710;9.392;2023-03-01T08:14:15;26.63;;;13.90;;
813;SDS011;389;48.710;9.392;2023-03-01T08:16:40;29.57;;;14.53;;
813;SDS011;389;48.710;9.392;2023-03-01T08:19:06;29.90;;;14.90;;
813;SDS011;389;48.710;9.392;2023-03-01T08:21:34;26.67;;;14.00;;
813;SDS011;389;48.710;9.392;2023-03-01T08:24:00;26.50;;;14.00;;
813;SDS011;389;48.710;9.392;2023-03-01T08:26:26;28.17;;;13.07;;
813;SDS011;389;48.710;9.392;2023-03-01T08:28:52;31.73;;;15.80;;
813;SDS011;389;48.710;9.392;2023-03-01T08:31:19;27.83;;;13.57;;
813;SDS011;389;48.710;9.392;2023-03-01T08:33:47;28.50;;;15.30;;
813;SDS011;389;48.710;9.392;2023-03-01T08:36:16;26.20;;;13.83;;
813;SDS011;389;48.710;9.392;2023-03-01T08:38:42;28.80;;;14.77;;
813;SDS011;389;48.710;9.392;2023-03-01T08:41:08;30.37;;;14.57;;
813;SDS011;389;48.710;9.392;2023-03-01T08:43:34;24.37;;;12.60;;
813;SDS011;389;48.710;9.392;2023-03-01T08:45:59;31.50;;;14.27;;
813;SDS011;389;48.710;9.392;2023-03-01T08:48:27;28.20;;;14.70;;
813;SDS011;389;48.710;9.392;2023-03-01T08:50:53;25.50;;;12.83;;
813;SDS011;389;48.710;9.392;2023-03-01T08:53:18;32.40;;;13.70;;
813;SDS011;389;48.710;9.392;2023-03-01T08:55:44;26.93;;;14.00;;
813;SDS011;389;48.710;9.392;2023-03-01T08:58:10;25.70;;;14.63;;
813;SDS011;389;48.710;9.392;2023-03-01T09:00:35;36.67;;;20.53;;
813;SDS011;389;48.710;9.392;2023-03-01T09:03:01;24.17;;;13.73;;
813;SDS011;389;48.710;9.392;2023-03-01T09:05:27;25.30;;;14.23;;
813;SDS011;389;48.710;9.392;2023-03-01T09:07:52;26.97;;;15.30;;
813;SDS011;389;48.710;9.392;2023-03-01T09:10:18;23.80;;;13.93;;
813;SDS011;389;48.710;9.392;2023-03-01T09:12:44;29.10;;;14.77;;
813;SDS011;389;48.710;9.392;2023-03-01T09:15:09;29.93;;;15.17;;
813;SDS011;389;48.710;9.392;2023-03-01T09:17:35;25.83;;;14.40;;
813;SDS011;389;48.710;9.392;2023-03-01T09:20:01;25.40;;;15.20;;
813;SDS011;389;48.710;9.392;2023-03-01T09:22:26;30.90;;;15.57;;
813;SDS011;389;48.710;9.392;2023-03-01T09:24:52;32.50;;;16.17;;
813;SDS011;389;48.710;9.392;2023-03-01T09:27:17;23.57;;;12.70;;
813;SDS011;389;48.710;9.392;2023-03-01T09:29:44;27.83;;;14.87;;
813;SDS011;389;48.710;9.392;2023-03-01T09:32:10;29.03;;;14.70;;
813;SDS011;389;48.710;9.392;2023-03-01T09:34:35;27.20;;;15.07;;
813;SDS011;389;48.710;9.392;2023-03-01T09:37:21;29.00;;;14.70;;
813;SDS011;389;48.710;9.392;2023-03-01T09:39:47;24.67;;;14.33;;
813;SDS011;389;48.710;9.392;2023-03-01T09:42:13;25.50;;;14.33;;
813;SDS011;389;48.710;9.392;2023-03-01T09:44:49;23.93;;;12.67;;
813;SDS011;389;48.710;9.392;2023-03-01T09:47:21;27.33;;;13.80;;
813;SDS011;389;48.710;9.392;2023-03-01T09:49:57;25.87;;;14.40;;
813;SDS011;389;48.710;9.392;2023-03-01T09:52:41;28.30;;;17.10;;
813;SDS011;389;48.710;9.392;2023-03-01T09:56:14;24.20;;;13.63;;
813;SDS011;389;48.710;9.392;2023-03-01T10:03:57;22.10;;;13.17;;
813;SDS011;389;48.710;9.392;2023-03-01T10:06:48;26.63;;;14.90;;
813;SDS011;389;48.710;9.392;2023-03-01T10:09:32;22.93;;;13.07;;
813;SDS011;389;48.710;9.392;2023-03-01T10:11:59;25.00;;;13.90;;
813;SDS011;389;48.710;9.392;2023-03-01T10:14:38;25.27;;;12.97;;
813;SDS011;389;48.710;9.392;2023-03-01T10:19:41;31.10;;;14.40;;
813;SDS011;389;48.710;9.392;2023-03-01T10:22:18;26.40;;;14.87;;
813;SDS011;389;48.710;9.392;2023-03-01T10:24:53;23.13;;;12.50;;
813;SDS011;389;48.710;9.392;2023-03-01T10:29:54;19.93;;;11.83;;
813;SDS011;389;48.710;9.392;2023-03-01T10:32:36;27.60;;;14.30;;
813;SDS011;389;48.710;9.392;2023-03-01T10:35:14;21.50;;;13.20;;
813;SDS011;389;48.710;9.392;2023-03-01T10:40:23;28.53;;;13.10;;
813;SDS011;389;48.710;9.392;2023-03-01T10:42:49;22.50;;;12.70;;
813;SDS011;389;48.710;9.392;2023-03-01T10:45:16;24.50;;;13.73;;
813;SDS011;389;48.710;9.392;2023-03-01T10:50:28;24.80;;;14.20;;
813;SDS011;389;48.710;9.392;2023-03-01T10:52:58;22.67;;;12.70;;
813;SDS011;389;48.710;9.392;2023-03-01T11:00:54;22.93;;;13.40;;
813;SDS011;389;48.710;9.392;2023-03-01T11:03:26;32.07;;;15.47;;
813;SDS011;389;48.710;9.392;2023-03-01T11:08:29;28.83;;;15.07;;
813;SDS011;389;48.710;9.392;2023-03-01T11:13:34;23.23;;;11.40;;
813;SDS011;389;48.710;9.392;2023-03-01T11:16:01;23.07;;;13.70;;
813;SDS011;389;48.710;9.392;2023-03-01T11:18:29;23.50;;;13.27;;
813;SDS011;389;48.710;9.392;2023-03-01T11:20:55;22.77;;;12.77;;
813;SDS011;389;48.710;9.392;2023-03-01T11:23:23;22.53;;;12.63;;
813;SDS011;389;48.710;9.392;2023-03-01T11:26:00;22.40;;;12.37;;
813;SDS011;389;48.710;9.392;2023-03-01T11:28:29;24.03;;;12.50;;
813;SDS011;389;48.710;9.392;2023-03-01T11:30:59;22.63;;;13.23;;
813;SDS011;389;48.710;9.392;2023-03-01T11:33:34;28.03;;;15.10;;
813;SDS011;389;48.710;9.392;2023-03-01T11:38:40;23.43;;;12.07;;
813;SDS011;389;48.710;9.392;2023-03-01T11:41:17;27.90;;;13.60;;
813;SDS011;389;48.710;9.392;2023-03-01T11:55:04;22.60;;;13.73;;
813;SDS011;389;48.710;9.392;2023-03-01T12:05:24;21.63;;;12.90;;
813;SDS011;389;48.710;9.392;2023-03-01T12:08:13;19.47;;;12.30;;
813;SDS011;389;48.710;9.392;2023-03-01T12:11:09;24.93;;;14.00;;
813;SDS011;389;48.710;9.392;2023-03-01T12:22:31;23.27;;;13.60;;
813;SDS011;389;48.710;9.392;2023-03-01T12:28:16;24.90;;;13.70;;
813;SDS011;389;48.710;9.392;2023-03-01T12:42:40;21.10;;;11.90;;
813;SDS011;389;48.710;9.392;2023-03-01T12:45:34;31.17;;;15.80;;
813;SDS011;389;48.710;9.392;2023-03-01T12:48:27;23.30;;;13.37;;
813;SDS011;389;48.710;9.392;2023-03-01T12:50:58;23.60;;;13.60;;
813;SDS011;389;48.710;9.392;2023-03-01T12:53:41;23.63;;;13.33;;
813;SDS011;389;48.710;9.392;2023-03-01T12:56:19;24.37;;;12.53;;
813;SDS011;389;48.710;9.392;2023-03-01T13:01:32;19.37;;;12.10;;
813;SDS011;389;48.710;9.392;2023-03-01T13:09:14;24.40;;;13.70;;
813;SDS011;389;48.710;9.392;2023-03-01T13:11:48;23.60;;;12.93;;
813;SDS011;389;48.710;9.392;2023-03-01T13:16:46;23.67;;;12.87;;
813;SDS011;389;48.710;9.392;2023-03-01T13:19:24;19.00;;;11.60;;
813;SDS011;389;48.710;9.392;2023-03-01T13:21:52;20.57;;;12.17;;
813;SDS011;389;48.710;9.392;2023-03-01T13:24:29;24.17;;;13.03;;
813;SDS011;389;48.710;9.392;2023-03-01T13:29:52;28.77;;;13.17;;
813;SDS011;389;48.710;9.392;2023-03-01T13:32:27;21.00;;;12.27;;
813;SDS011;389;48.710;9.392;2023-03-01T13:34:58;21.37;;;12.30;;
813;SDS011;389;48.710;9.392;2023-03-01T13:37:44;20.47;;;12.40;;
813;SDS011;389;48.710;9.392;2023-03-01T13:42:46;20.50;;;13.40;;
813;SDS011;389;48.710;9.392;2023-03-01T13:45:32;22.30;;;12.90;;
813;SDS011;389;48.710;9.392;2023-03-01T13:48:50;22.50;;;12.83;;
813;SDS011;389;48.710;9.392;2023-03-01T13:50:51;18.80;;;10.47;;
813;SDS011;389;48.710;9.392;2023-03-01T13:53:30;25.13;;;13.00;;
813;SDS011;389;48.710;9.392;2023-03-01T13:56:13;21.57;;;13.37;;
813;SDS011;389;48.710;9.392;2023-03-01T13:58:55;16.40;;;11.30;;
813;SDS011;389;48.710;9.392;2023-03-01T14:01:32;20.33;;;11.77;;
813;SDS011;389;48.710;9.392;2023-03-01T14:03:59;21.77;;;13.00;;
813;SDS011;389;48.710;9.392;2023-03-01T14:06:26;22.70;;;12.00;;
813;SDS011;389;48.710;9.392;2023-03-01T14:09:11;18.70;;;11.70;;
813;SDS011;389;48.710;9.392;2023-03-01T14:11:58;20.27;;;12.23;;
813;SDS011;389;48.710;9.392;2023-03-01T14:19:35;19.57;;;13.10;;
813;SDS011;389;48.710;9.392;2023-03-01T14:24:53;16.37;;;11.33;;
813;SDS011;389;48.710;9.392;2023-03-01T14:27:25;21.60;;;12.67;;
813;SDS011;389;48.710;9.392;2023-03-01T14:29:59;25.60;;;12.80;;
813;SDS011;389;48.710;9.392;2023-03-01T14:32:27;21.80;;;12.00;;
813;SDS011;389;48.710;9.392;2023-03-01T14:34:54;20.33;;;13.23;;
813;SDS011;389;48.710;9.392;2023-03-01T14:37:25;24.90;;;12.73;;
813;SDS011;389;48.710;9.392;2023-03-01T14:39:57;23.73;;;13.63;;
813;SDS011;389;48.710;9.392;2023-03-01T14:42:24;20.17;;;12.43;;
813;SDS011;389;48.710;9.392;2023-03-01T14:44:52;22.03;;;12.07;;
813;SDS011;389;48.710;9.392;2023-03-01T14:47:25;20.87;;;13.03;;
813;SDS011;389;48.710;9.392;2023-03-01T14:49:57;28.50;;;13.70;;
813;SDS011;389;48.710;9.392;2023-03-01T14:52:36;24.83;;;12.80;;
813;SDS011;389;48.710;9.392;2023-03-01T14:55:05;21.13;;;11.80;;
813;SDS011;389;48.710;9.392;2023-03-01T14:57:42;21.23;;;13.37;;
813;SDS011;389;48.710;9.392;2023-03-01T15:00:10;19.37;;;12.90;;
813;SDS011;389;48.710;9.392;2023-03-01T15:02:43;19.90;;;11.20;;
813;SDS011;389;48.710;9.392;2023-03-01T15:05:13;23.33;;;12.47;;
813;SDS011;389;48.710;9.392;2023-03-01T15:07:40;20.03;;;12.33;;
813;SDS011;389;48.710;9.392;2023-03-01T15:10:30;23.83;;;13.17;;
813;SDS011;389;48.710;9.392;2023-03-01T15:13:14;20.73;;;12.20;;
813;SDS011;389;48.710;9.392;2023-03-01T15:15:49;19.23;;;11.90;;
813;SDS011;389;48.710;9.392;2023-03-01T15:18:19;20.63;;;12.67;;
813;SDS011;389;48.710;9.392;2023-03-01T15:20:49;20.00;;;11.73;;
813;SDS011;389;48.710;9.392;2023-03-01T15:23:23;19.73;;;11.57;;
813;SDS011;389;48.710;9.392;2023-03-01T15:25:51;19.73;;;12.37;;
813;SDS011;389;48.710;9.392;2023-03-01T15:28:33;18.27;;;11.83;;
813;SDS011;389;48.710;9.392;2023-03-01T15:33:48;18.63;;;11.37;;
813;SDS011;389;48.710;9.392;2023-03-01T15:39:05;20.87;;;12.03;;
813;SDS011;389;48.710;9.392;2023-03-01T15:42:04;21.23;;;11.50;;
813;SDS011;389;48.710;9.392;2023-03-01T15:44:35;20.90;;;11.83;;
813;SDS011;389;48.710;9.392;2023-03-01T15:47:08;20.83;;;12.80;;
813;SDS011;389;48.710;9.392;2023-03-01T15:49:50;21.83;;;11.97;;
813;SDS011;389;48.710;9.392;2023-03-01T15:52:28;23.27;;;11.93;;
813;SDS011;389;48.710;9.392;2023-03-01T15:55:05;24.70;;;12.07;;
813;SDS011;389;48.710;9.392;2023-03-01T15:57:39;19.60;;;11.63;;
813;SDS011;389;48.710;9.392;2023-03-01T16:00:05;22.13;;;11.53;;
813;SDS011;389;48.710;9.392;2023-03-01T16:02:36;21.10;;;12.77;;
813;SDS011;389;48.710;9.392;2023-03-01T16:05:03;20.90;;;11.90;;
813;SDS011;389;48.710;9.392;2023-03-01T16:07:29;22.83;;;12.00;;
813;SDS011;389;48.710;9.392;2023-03-01T16:09:56;19.50;;;11.80;;
813;SDS011;389;48.710;9.392;2023-03-01T16:12:21;20.50;;;11.90;;
813;SDS011;389;48.710;9.392;2023-03-01T16:14:49;21.10;;;12.03;;
813;SDS011;389;48.710;9.392;2023-03-01T16:17:14;19.23;;;10.67;;
813;SDS011;389;48.710;9.392;2023-03-01T16:19:40;24.03;;;12.83;;
813;SDS011;389;48.710;9.392;2023-03-01T16:22:06;20.33;;;11.33;;
813;SDS011;389;48.710;9.392;2023-03-01T16:24:33;21.23;;;11.10;;
813;SDS011;389;48.710;9.392;2023-03-01T16:27:00;17.00;;;11.30;;
813;SDS011;389;48.710;9.392;2023-03-01T16:29:26;24.03;;;13.03;;
813;SDS011;389;48.710;9.392;2023-03-01T16:31:54;24.40;;;14.00;;
813;SDS011;389;48.710;9.392;2023-03-01T16:34:19;23.57;;;14.17;;
813;SDS011;389;48.710;9.392;2023-03-01T16:40:35;29.50;;;16.57;;
813;SDS011;389;48.710;9.392;2023-03-01T16:43:01;23.77;;;13.77;;
813;SDS011;389;48.710;9.392;2023-03-01T16:45:27;23.53;;;12.40;;
813;SDS011;389;48.710;9.392;2023-03-01T16:47:59;24.53;;;12.17;;
813;SDS011;389;48.710;9.392;2023-03-01T16:50:24;23.93;;;13.20;;
813;SDS011;389;48.710;9.392;2023-03-01T16:52:50;21.23;;;13.10;;
813;SDS011;389;48.710;9.392;2023-03-01T16:55:16;29.40;;;13.90;;
813;SDS011;389;48.710;9.392;2023-03-01T16:57:41;28.00;;;14.70;;
813;SDS011;389;48.710;9.392;2023-03-01T17:00:07;25.37;;;14.13;;
813;SDS011;389;48.710;9.392;2023-03-01T17:02:34;26.90;;;12.83;;
813;SDS011;389;48.710;9.392;2023-03-01T17:05:00;30.53;;;15.43;;
813;SDS011;389;48.710;9.392;2023-03-01T17:07:27;33.33;;;14.07;;
813;SDS011;389;48.710;9.392;2023-03-01T17:09:54;26.57;;;15.00;;
813;SDS011;389;48.710;9.392;2023-03-01T17:12:19;25.20;;;13.10;;
813;SDS011;389;48.710;9.392;2023-03-01T17:14:45;28.23;;;14.70;;
813;SDS011;389;48.710;9.392;2023-03-01T17:17:10;26.77;;;12.67;;
813;SDS011;389;48.710;9.392;2023-03-01T17:19:36;25.87;;;13.10;;
813;SDS011;389;48.710;9.392;2023-03-01T17:22:08;23.33;;;12.70;;
813;SDS011;389;48.710;9.392;2023-03-01T17:24:35;21.37;;;13.03;;
813;SDS011;389;48.710;9.392;2023-03-01T17:27:02;23.03;;;14.10;;
813;SDS011;389;48.710;9.392;2023-03-01T17:29:29;26.07;;;13.47;;
813;SDS011;389;48.710;9.392;2023-03-01T17:31:55;26.60;;;13.83;;
813;SDS011;389;48.710;9.392;2023-03-01T17:34:21;24.20;;;13.50;;
813;SDS011;389;48.710;9.392;2023-03-01T17:36:47;23.40;;;12.43;;
813;SDS011;389;48.710;9.392;2023-03-01T17:39:14;24.77;;;13.47;;
813;SDS011;389;48.710;9.392;2023-03-01T17:41:40;25.63;;;13.33;;
813;SDS011;389;48.710;9.392;2023-03-01T17:44:06;28.57;;;13.43;;